sensor_id;sensor_type;location;lat;lon;timestamp;pressure;altitude;pressure_sealevel;temperature;humidity
58785;BME280;44557;51.862;19.378;2023-07-13T00:00:18;98727.30;;;21.73;81.83
58785;BME280;44557;51.862;19.378;2023-07-13T00:02:39;98727.09;;;21.83;81.27
58785;BME280;44557;51.862;19.378;2023-07-13T00:04:41;98731.94;;;21.91;80.89
58785;BME280;44557;51.862;19.378;2023-07-13T00:06:44;98732.14;;;21.82;80.73
58785;BME280;44557;51.862;19.378;2023-07-13T00:08:46;98731.67;;;21.74;81.65
58785;BME280;44557;51.862;19.378;2023-07-13T00:10:51;98731.36;;;21.78;81.58
58785;BME280;44557;51.862;19.378;2023-07-13T00:12:56;98733.31;;;21.97;80.47
58785;BME280;44557;51.862;19.378;2023-07-13T00:15:05;98735.77;;;21.78;81.01
58785;BME280;44557;51.862;19.378;2023-07-13T00:17:08;98734.33;;;21.81;81.25
58785;BME280;44557;51.862;19.378;2023-07-13T00:19:11;98730.51;;;21.84;81.36
58785;BME280;44557;51.862;19.378;2023-07-13T00:21:14;98723.84;;;21.70;81.58
58785;BME280;44557;51.862;19.378;2023-07-13T00:23:16;98724.63;;;21.85;81.03
58785;BME280;44557;51.862;19.378;2023-07-13T00:25:19;98719.42;;;21.95;80.65
58785;BME280;44557;51.862;19.378;2023-07-13T00:27:21;98715.02;;;21.85;80.99
58785;BME280;44557;51.862;19.378;2023-07-13T00:29:23;98719.71;;;21.83;81.02
58785;BME280;44557;51.862;19.378;2023-07-13T00:31:25;98725.24;;;21.71;81.46
58785;BME280;44557;51.862;19.378;2023-07-13T00:33:28;98728.13;;;21.51;82.98
58785;BME280;44557;51.862;19.378;2023-07-13T00:35:31;98723.82;;;21.64;82.91
58785;BME280;44557;51.862;19.378;2023-07-13T00:37:32;98724.52;;;21.62;82.67
58785;BME280;44557;51.862;19.378;2023-07-13T00:39:37;98724.90;;;21.54;83.54
58785;BME280;44557;51.862;19.378;2023-07-13T00:41:39;98720.27;;;21.68;82.99
58785;BME280;44557;51.862;19.378;2023-07-13T00:43:41;98718.57;;;21.59;82.92
58785;BME280;44557;51.862;19.378;2023-07-13T00:47:47;98724.63;;;21.46;84.23
58785;BME280;44557;51.862;19.378;2023-07-13T00:49:49;98723.47;;;21.48;83.67
58785;BME280;44557;51.862;19.378;2023-07-13T00:52:16;98727.09;;;21.48;83.74
58785;BME280;44557;51.862;19.378;2023-07-13T00:54:27;98726.63;;;21.35;84.00
58785;BME280;44557;51.862;19.378;2023-07-13T00:56:31;98729.34;;;21.29;84.00
58785;BME280;44557;51.862;19.378;2023-07-13T00:58:34;98730.78;;;21.46;81.75
58785;BME280;44557;51.862;19.378;2023-07-13T01:00:38;98732.26;;;21.41;82.35
58785;BME280;44557;51.862;19.378;2023-07-13T01:02:42;98733.78;;;21.27;82.98
58785;BME280;44557;51.862;19.378;2023-07-13T01:04:45;98739.15;;;21.30;82.34
58785;BME280;44557;51.862;19.378;2023-07-13T01:06:47;98740.90;;;21.27;82.78
58785;BME280;44557;51.862;19.378;2023-07-13T01:08:48;98736.35;;;21.34;82.51
58785;BME280;44557;51.862;19.378;2023-07-13T01:10:52;98731.23;;;21.30;82.52
58785;BME280;44557;51.862;19.378;2023-07-13T01:12:54;98730.48;;;21.46;82.03
58785;BME280;44557;51.862;19.378;2023-07-13T01:15:00;98720.81;;;21.42;81.88
58785;BME280;44557;51.862;19.378;2023-07-13T01:17:03;98718.16;;;21.66;80.46
58785;BME280;44557;51.862;19.378;2023-07-13T01:19:12;98715.02;;;21.43;81.50
58785;BME280;44557;51.862;19.378;2023-07-13T01:21:18;98712.32;;;21.39;82.40
58785;BME280;44557;51.862;19.378;2023-07-13T01:23:21;98716.23;;;21.39;82.60
58785;BME280;44557;51.862;19.378;2023-07-13T01:25:23;98716.36;;;21.26;83.56
58785;BME280;44557;51.862;19.378;2023-07-13T01:27:25;98713.23;;;21.30;83.93
58785;BME280;44557;51.862;19.378;2023-07-13T01:29:27;98718.20;;;21.26;83.86
58785;BME280;44557;51.862;19.378;2023-07-13T01:31:29;98714.48;;;21.20;84.07
58785;BME280;44557;51.862;19.378;2023-07-13T01:33:31;98712.18;;;21.23;83.55
58785;BME280;44557;51.862;19.378;2023-07-13T01:35:33;98712.84;;;21.30;82.80
58785;BME280;44557;51.862;19.378;2023-07-13T01:37:35;98712.34;;;21.23;83.44
58785;BME280;44557;51.862;19.378;2023-07-13T01:39:38;98713.41;;;21.29;82.72
58785;BME280;44557;51.862;19.378;2023-07-13T01:41:40;98721.56;;;21.29;82.84
58785;BME280;44557;51.862;19.378;2023-07-13T01:43:42;98724.89;;;21.31;83.09
58785;BME280;44557;51.862;19.378;2023-07-13T01:45:45;98727.14;;;21.52;82.04
58785;BME280;44557;51.862;19.378;2023-07-13T01:47:47;98726.58;;;21.59;81.67
58785;BME280;44557;51.862;19.378;2023-07-13T01:49:49;98729.86;;;21.56;81.84
58785;BME280;44557;51.862;19.378;2023-07-13T01:51:53;98732.33;;;21.35;82.81
58785;BME280;44557;51.862;19.378;2023-07-13T01:53:55;98731.83;;;21.43;82.51
58785;BME280;44557;51.862;19.378;2023-07-13T01:55:57;98727.88;;;21.40;82.36
58785;BME280;44557;51.862;19.378;2023-07-13T01:58:00;98722.59;;;21.26;82.67
58785;BME280;44557;51.862;19.378;2023-07-13T02:00:04;98724.98;;;21.33;82.47
58785;BME280;44557;51.862;19.378;2023-07-13T02:02:07;98724.38;;;21.28;82.64
58785;BME280;44557;51.862;19.378;2023-07-13T02:04:09;98719.27;;;21.35;81.90
58785;BME280;44557;51.862;19.378;2023-07-13T02:06:12;98715.79;;;21.15;83.10
58785;BME280;44557;51.862;19.378;2023-07-13T02:08:14;98713.20;;;21.20;83.15
58785;BME280;44557;51.862;19.378;2023-07-13T02:10:17;98709.75;;;21.31;82.93
58785;BME280;44557;51.862;19.378;2023-07-13T02:12:19;98706.33;;;21.19;83.43
58785;BME280;44557;51.862;19.378;2023-07-13T02:14:21;98702.96;;;21.16;83.52
58785;BME280;44557;51.862;19.378;2023-07-13T02:16:23;98705.59;;;21.32;82.61
58785;BME280;44557;51.862;19.378;2023-07-13T02:18:25;98701.69;;;21.37;82.06
58785;BME280;44557;51.862;19.378;2023-07-13T02:20:27;98701.85;;;21.33;81.83
58785;BME280;44557;51.862;19.378;2023-07-13T02:22:29;98704.48;;;21.04;83.75
58785;BME280;44557;51.862;19.378;2023-07-13T02:24:31;98704.88;;;20.97;83.63
58785;BME280;44557;51.862;19.378;2023-07-13T02:26:33;98710.16;;;20.96;83.74
58785;BME280;44557;51.862;19.378;2023-07-13T02:28:35;98707.34;;;21.06;83.91
58785;BME280;44557;51.862;19.378;2023-07-13T02:30:37;98707.27;;;21.17;83.25
58785;BME280;44557;51.862;19.378;2023-07-13T02:32:40;98708.19;;;21.10;83.67
58785;BME280;44557;51.862;19.378;2023-07-13T02:34:42;98707.28;;;21.27;82.82
58785;BME280;44557;51.862;19.378;2023-07-13T02:36:44;98709.86;;;21.11;83.80
58785;BME280;44557;51.862;19.378;2023-07-13T02:38:46;98704.98;;;21.04;84.10
58785;BME280;44557;51.862;19.378;2023-07-13T02:40:48;98701.05;;;21.19;83.41
58785;BME280;44557;51.862;19.378;2023-07-13T02:42:50;98700.11;;;21.21;82.86
58785;BME280;44557;51.862;19.378;2023-07-13T02:44:52;98699.23;;;21.25;83.08
58785;BME280;44557;51.862;19.378;2023-07-13T02:46:53;98701.55;;;21.43;82.23
58785;BME280;44557;51.862;19.378;2023-07-13T02:48:55;98703.94;;;21.37;82.20
58785;BME280;44557;51.862;19.378;2023-07-13T02:50:57;98703.50;;;21.35;82.48
58785;BME280;44557;51.862;19.378;2023-07-13T02:52:59;98705.11;;;21.34;82.47
58785;BME280;44557;51.862;19.378;2023-07-13T02:55:00;98708.94;;;21.01;84.09
58785;BME280;44557;51.862;19.378;2023-07-13T02:57:03;98705.06;;;21.11;83.65
58785;BME280;44557;51.862;19.378;2023-07-13T02:59:05;98705.67;;;21.20;83.34
58785;BME280;44557;51.862;19.378;2023-07-13T03:01:11;98707.03;;;21.31;82.70
58785;BME280;44557;51.862;19.378;2023-07-13T03:03:15;98707.69;;;21.34;82.60
58785;BME280;44557;51.862;19.378;2023-07-13T03:05:18;98709.64;;;21.14;83.03
58785;BME280;44557;51.862;19.378;2023-07-13T03:07:19;98711.85;;;20.96;83.74
58785;BME280;44557;51.862;19.378;2023-07-13T03:09:22;98708.77;;;21.10;83.60
58785;BME280;44557;51.862;19.378;2023-07-13T03:11:25;98707.90;;;21.20;82.96
58785;BME280;44557;51.862;19.378;2023-07-13T03:13:28;98713.30;;;21.30;82.89
58785;BME280;44557;51.862;19.378;2023-07-13T03:15:31;98714.23;;;21.24;83.06
58785;BME280;44557;51.862;19.378;2023-07-13T03:17:33;98714.89;;;21.23;83.34
58785;BME280;44557;51.862;19.378;2023-07-13T03:19:35;98709.86;;;21.07;84.18
58785;BME280;44557;51.862;19.378;2023-07-13T03:21:37;98706.88;;;21.24;83.29
58785;BME280;44557;51.862;19.378;2023-07-13T03:23:39;98704.36;;;21.17;83.47
58785;BME280;44557;51.862;19.378;2023-07-13T03:25:40;98699.67;;;21.30;82.70
58785;BME280;44557;51.862;19.378;2023-07-13T03:27:42;98699.61;;;21.26;82.82
58785;BME280;44557;51.862;19.378;2023-07-13T03:29:44;98698.81;;;21.19;83.10
58785;BME280;44557;51.862;19.378;2023-07-13T03:31:47;98699.98;;;21.27;82.05
58785;BME280;44557;51.862;19.378;2023-07-13T03:33:49;98699.34;;;21.25;82.28
58785;BME280;44557;51.862;19.378;2023-07-13T03:35:51;98695.04;;;21.41;81.55
58785;BME280;44557;51.862;19.378;2023-07-13T03:37:53;98702.63;;;21.24;82.37
58785;BME280;44557;51.862;19.378;2023-07-13T03:39:54;98709.84;;;21.45;81.00
58785;BME280;44557;51.862;19.378;2023-07-13T03:41:57;98715.99;;;21.42;81.02
58785;BME280;44557;51.862;19.378;2023-07-13T03:43:59;98722.33;;;21.45;81.01
58785;BME280;44557;51.862;19.378;2023-07-13T03:46:01;98721.67;;;21.31;82.42
58785;BME280;44557;51.862;19.378;2023-07-13T03:48:04;98728.78;;;21.17;83.04
58785;BME280;44557;51.862;19.378;2023-07-13T03:50:06;98733.74;;;21.32;82.50
58785;BME280;44557;51.862;19.378;2023-07-13T03:52:08;98737.08;;;21.41;82.10
58785;BME280;44557;51.862;19.378;2023-07-13T03:54:10;98740.73;;;21.35;82.18
58785;BME280;44557;51.862;19.378;2023-07-13T03:56:13;98745.55;;;21.41;81.77
58785;BME280;44557;51.862;19.378;2023-07-13T03:58:35;98750.35;;;21.23;82.57
58785;BME280;44557;51.862;19.378;2023-07-13T04:00:37;98750.33;;;21.17;82.84
58785;BME280;44557;51.862;19.378;2023-07-13T04:02:38;98752.41;;;21.12;83.27
58785;BME280;44557;51.862;19.378;2023-07-13T04:04:40;98750.31;;;21.14;83.57
58785;BME280;44557;51.862;19.378;2023-07-13T04:06:42;98753.25;;;21.06;84.32
58785;BME280;44557;51.862;19.378;2023-07-13T04:08:44;98757.11;;;21.01;84.85
58785;BME280;44557;51.862;19.378;2023-07-13T04:10:46;98750.20;;;21.08;84.97
58785;BME280;44557;51.862;19.378;2023-07-13T04:12:48;98753.58;;;21.01;84.72
58785;BME280;44557;51.862;19.378;2023-07-13T04:14:50;98751.55;;;21.03;84.78
58785;BME280;44557;51.862;19.378;2023-07-13T04:16:53;98752.10;;;21.32;82.94
58785;BME280;44557;51.862;19.378;2023-07-13T04:18:56;98757.88;;;21.38;82.11
58785;BME280;44557;51.862;19.378;2023-07-13T04:21:01;98753.70;;;21.35;82.24
58785;BME280;44557;51.862;19.378;2023-07-13T04:23:03;98754.15;;;21.29;82.67
58785;BME280;44557;51.862;19.378;2023-07-13T04:25:06;98751.76;;;21.13;83.11
58785;BME280;44557;51.862;19.378;2023-07-13T04:27:07;98754.37;;;21.11;83.42
58785;BME280;44557;51.862;19.378;2023-07-13T04:29:11;98753.39;;;21.20;83.42
58785;BME280;44557;51.862;19.378;2023-07-13T04:31:13;98755.73;;;21.22;83.64
58785;BME280;44557;51.862;19.378;2023-07-13T04:33:14;98761.90;;;21.34;83.91
58785;BME280;44557;51.862;19.378;2023-07-13T04:35:19;98763.27;;;21.33;84.16
58785;BME280;44557;51.862;19.378;2023-07-13T04:37:25;98766.55;;;21.51;82.62
58785;BME280;44557;51.862;19.378;2023-07-13T04:39:27;98768.65;;;21.54;82.68
58785;BME280;44557;51.862;19.378;2023-07-13T04:41:29;98768.75;;;21.46;82.98
58785;BME280;44557;51.862;19.378;2023-07-13T04:43:32;98769.43;;;21.49;82.44
58785;BME280;44557;51.862;19.378;2023-07-13T04:45:34;98770.38;;;21.53;82.40
58785;BME280;44557;51.862;19.378;2023-07-13T04:47:36;98773.05;;;21.48;82.38
58785;BME280;44557;51.862;19.378;2023-07-13T04:49:38;98766.39;;;21.58;81.73
58785;BME280;44557;51.862;19.378;2023-07-13T04:51:43;98768.17;;;21.68;80.96
58785;BME280;44557;51.862;19.378;2023-07-13T04:53:45;98773.59;;;21.66;80.95
58785;BME280;44557;51.862;19.378;2023-07-13T04:55:47;98773.59;;;21.56;80.91
58785;BME280;44557;51.862;19.378;2023-07-13T04:57:49;98771.92;;;21.62;80.82
58785;BME280;44557;51.862;19.378;2023-07-13T04:59:52;98780.23;;;21.75;80.11
58785;BME280;44557;51.862;19.378;2023-07-13T05:01:54;98784.05;;;21.75;80.22
58785;BME280;44557;51.862;19.378;2023-07-13T05:03:56;98787.16;;;21.87;79.70
58785;BME280;44557;51.862;19.378;2023-07-13T05:06:06;98792.64;;;21.86;79.91
58785;BME280;44557;51.862;19.378;2023-07-13T05:08:08;98798.61;;;21.90;79.65
58785;BME280;44557;51.862;19.378;2023-07-13T05:10:10;98795.70;;;21.99;78.95
58785;BME280;44557;51.862;19.378;2023-07-13T05:12:12;98795.69;;;21.89;79.49
58785;BME280;44557;51.862;19.378;2023-07-13T05:14:14;98793.34;;;22.01;79.18
58785;BME280;44557;51.862;19.378;2023-07-13T05:16:18;98793.47;;;21.98;79.27
58785;BME280;44557;51.862;19.378;2023-07-13T05:18:20;98799.65;;;21.90;79.84
58785;BME280;44557;51.862;19.378;2023-07-13T05:20:22;98808.71;;;21.73;80.99
58785;BME280;44557;51.862;19.378;2023-07-13T05:22:24;98808.39;;;21.90;80.62
58785;BME280;44557;51.862;19.378;2023-07-13T05:24:26;98807.48;;;22.19;79.65
58785;BME280;44557;51.862;19.378;2023-07-13T05:26:28;98806.09;;;22.30;79.20
58785;BME280;44557;51.862;19.378;2023-07-13T05:28:31;98803.39;;;22.32;78.83
58785;BME280;44557;51.862;19.378;2023-07-13T05:30:33;98805.77;;;22.53;78.02
58785;BME280;44557;51.862;19.378;2023-07-13T07:42:00;98825.15;;;25.95;56.69
58785;BME280;44557;51.862;19.378;2023-07-13T07:44:03;98836.06;;;25.77;56.61
58785;BME280;44557;51.862;19.378;2023-07-13T07:46:05;98839.98;;;25.88;56.53
58785;BME280;44557;51.862;19.378;2023-07-13T07:48:08;98842.21;;;25.76;57.43
58785;BME280;44557;51.862;19.378;2023-07-13T07:50:12;98848.99;;;25.63;58.25
58785;BME280;44557;51.862;19.378;2023-07-13T07:52:14;98857.73;;;25.49;59.16
58785;BME280;44557;51.862;19.378;2023-07-13T07:54:17;98859.21;;;25.30;59.81
58785;BME280;44557;51.862;19.378;2023-07-13T07:56:19;98864.83;;;25.42;60.24
58785;BME280;44557;51.862;19.378;2023-07-13T07:58:22;98872.27;;;25.53;60.20
58785;BME280;44557;51.862;19.378;2023-07-13T08:00:23;98876.52;;;25.37;60.84
58785;BME280;44557;51.862;19.378;2023-07-13T08:02:25;98875.86;;;25.15;59.71
58785;BME280;44557;51.862;19.378;2023-07-13T08:04:27;98883.52;;;24.99;58.83
58785;BME280;44557;51.862;19.378;2023-07-13T08:06:32;98889.84;;;25.04;59.09
58785;BME280;44557;51.862;19.378;2023-07-13T08:08:35;98897.49;;;24.78;59.11
58785;BME280;44557;51.862;19.378;2023-07-13T08:10:37;98902.80;;;24.81;58.50
58785;BME280;44557;51.862;19.378;2023-07-13T08:12:40;98905.17;;;24.75;58.57
58785;BME280;44557;51.862;19.378;2023-07-13T08:14:42;98909.27;;;24.82;58.58
58785;BME280;44557;51.862;19.378;2023-07-13T08:16:44;98917.90;;;24.67;59.67
58785;BME280;44557;51.862;19.378;2023-07-13T08:18:46;98921.93;;;24.51;62.35
58785;BME280;44557;51.862;19.378;2023-07-13T08:20:48;98927.73;;;24.46;65.62
58785;BME280;44557;51.862;19.378;2023-07-13T08:22:50;98926.83;;;23.91;70.92
58785;BME280;44557;51.862;19.378;2023-07-13T08:24:53;98930.26;;;23.80;72.91
58785;BME280;44557;51.862;19.378;2023-07-13T08:26:59;98935.55;;;23.40;75.36
58785;BME280;44557;51.862;19.378;2023-07-13T08:29:01;98939.48;;;23.34;75.96
58785;BME280;44557;51.862;19.378;2023-07-13T08:31:05;98943.27;;;23.09;75.59
58785;BME280;44557;51.862;19.378;2023-07-13T08:33:08;98938.22;;;23.05;76.24
58785;BME280;44557;51.862;19.378;2023-07-13T08:35:11;98943.83;;;22.83;77.37
58785;BME280;44557;51.862;19.378;2023-07-13T08:37:15;98942.00;;;22.62;77.66
58785;BME280;44557;51.862;19.378;2023-07-13T08:39:18;98940.26;;;22.37;78.91
58785;BME280;44557;51.862;19.378;2023-07-13T08:41:21;98939.32;;;22.25;78.80
58785;BME280;44557;51.862;19.378;2023-07-13T08:43:34;98940.02;;;22.26;78.61
58785;BME280;44557;51.862;19.378;2023-07-13T08:45:44;98946.30;;;22.05;78.80
58785;BME280;44557;51.862;19.378;2023-07-13T08:48:03;98943.77;;;21.85;78.70
58785;BME280;44557;51.862;19.378;2023-07-13T08:50:12;98947.10;;;21.94;78.08
58785;BME280;44557;51.862;19.378;2023-07-13T08:52:34;98948.91;;;21.76;78.81
58785;BME280;44557;51.862;19.378;2023-07-13T08:54:47;98944.45;;;21.87;78.91
58785;BME280;44557;51.862;19.378;2023-07-13T08:56:51;98944.08;;;21.78;79.72
58785;BME280;44557;51.862;19.378;2023-07-13T08:59:09;98943.16;;;21.42;79.94
58785;BME280;44557;51.862;19.378;2023-07-13T09:04:16;98943.91;;;21.28;80.76
58785;BME280;44557;51.862;19.378;2023-07-13T09:06:23;98950.52;;;21.19;80.66
58785;BME280;44557;51.862;19.378;2023-07-13T09:08:58;98950.79;;;21.28;81.26
58785;BME280;44557;51.862;19.378;2023-07-13T09:13:43;98959.48;;;21.52;81.53
58785;BME280;44557;51.862;19.378;2023-07-13T09:15:51;98960.59;;;21.48;80.59
58785;BME280;44557;51.862;19.378;2023-07-13T09:17:57;98964.23;;;21.50;81.23
58785;BME280;44557;51.862;19.378;2023-07-13T09:20:30;98963.31;;;21.52;80.73
58785;BME280;44557;51.862;19.378;2023-07-13T09:22:35;98956.00;;;21.44;80.54
58785;BME280;44557;51.862;19.378;2023-07-13T09:25:00;98956.27;;;21.56;80.61
58785;BME280;44557;51.862;19.378;2023-07-13T09:27:19;98954.29;;;21.55;80.28
58785;BME280;44557;51.862;19.378;2023-07-13T09:29:29;98952.34;;;21.31;80.82
58785;BME280;44557;51.862;19.378;2023-07-13T09:31:34;98953.08;;;21.51;80.79
58785;BME280;44557;51.862;19.378;2023-07-13T09:33:38;98949.42;;;21.40;80.37
58785;BME280;44557;51.862;19.378;2023-07-13T09:35:40;98950.89;;;21.44;80.66
58785;BME280;44557;51.862;19.378;2023-07-13T09:37:44;98955.44;;;21.61;80.00
58785;BME280;44557;51.862;19.378;2023-07-13T09:39:48;98948.10;;;21.56;79.87
58785;BME280;44557;51.862;19.378;2023-07-13T09:42:00;98950.30;;;21.62;80.90
58785;BME280;44557;51.862;19.378;2023-07-13T09:46:21;98942.09;;;21.77;80.19
58785;BME280;44557;51.862;19.378;2023-07-13T09:48:34;98937.52;;;21.93;79.45
58785;BME280;44557;51.862;19.378;2023-07-13T09:50:36;98933.69;;;22.07;78.85
58785;BME280;44557;51.862;19.378;2023-07-13T09:52:47;98933.55;;;22.14;77.61
58785;BME280;44557;51.862;19.378;2023-07-13T09:54:51;98937.15;;;22.29;77.77
58785;BME280;44557;51.862;19.378;2023-07-13T09:56:57;98936.67;;;22.45;77.65
58785;BME280;44557;51.862;19.378;2023-07-13T09:59:00;98942.99;;;22.54;76.78
58785;BME280;44557;51.862;19.378;2023-07-13T10:01:04;98942.33;;;22.66;77.51
58785;BME280;44557;51.862;19.378;2023-07-13T10:03:26;98943.23;;;22.75;78.21
58785;BME280;44557;51.862;19.378;2023-07-13T10:05:42;98945.83;;;22.73;77.10
58785;BME280;44557;51.862;19.378;2023-07-13T10:07:45;98948.96;;;22.59;77.33
58785;BME280;44557;51.862;19.378;2023-07-13T10:09:47;98943.35;;;22.66;76.39
58785;BME280;44557;51.862;19.378;2023-07-13T10:11:50;98938.56;;;22.91;75.37
58785;BME280;44557;51.862;19.378;2023-07-13T10:13:56;98936.44;;;22.87;75.71
58785;BME280;44557;51.862;19.378;2023-07-13T10:16:00;98933.48;;;22.83;75.78
58785;BME280;44557;51.862;19.378;2023-07-13T10:18:02;98933.92;;;22.75;75.31
58785;BME280;44557;51.862;19.378;2023-07-13T10:20:05;98937.26;;;22.62;76.68
58785;BME280;44557;51.862;19.378;2023-07-13T10:24:36;98929.79;;;22.93;76.96
58785;BME280;44557;51.862;19.378;2023-07-13T10:26:45;98931.39;;;22.86;76.65
58785;BME280;44557;51.862;19.378;2023-07-13T10:28:52;98930.11;;;22.83;75.92
58785;BME280;44557;51.862;19.378;2023-07-13T10:30:59;98928.04;;;22.82;76.39
58785;BME280;44557;51.862;19.378;2023-07-13T10:33:09;98929.21;;;22.84;75.97
58785;BME280;44557;51.862;19.378;2023-07-13T10:35:14;98927.52;;;22.77;75.46
58785;BME280;44557;51.862;19.378;2023-07-13T10:37:25;98927.70;;;22.56;75.97
58785;BME280;44557;51.862;19.378;2023-07-13T10:39:30;98926.20;;;22.85;75.51
58785;BME280;44557;51.862;19.378;2023-07-13T10:41:37;98925.63;;;22.95;75.53
58785;BME280;44557;51.862;19.378;2023-07-13T10:43:46;98928.48;;;22.56;76.35
58785;BME280;44557;51.862;19.378;2023-07-13T10:45:51;98928.86;;;22.62;76.68
58785;BME280;44557;51.862;19.378;2023-07-13T10:47:56;98930.80;;;22.65;76.81
58785;BME280;44557;51.862;19.378;2023-07-13T10:50:00;98930.48;;;22.61;76.81
58785;BME280;44557;51.862;19.378;2023-07-13T10:52:02;98929.61;;;22.56;76.87
58785;BME280;44557;51.862;19.378;2023-07-13T10:54:17;98929.20;;;22.60;77.22
58785;BME280;44557;51.862;19.378;2023-07-13T10:56:28;98927.98;;;22.40;77.44
58785;BME280;44557;51.862;19.378;2023-07-13T10:58:42;98927.96;;;22.58;77.70
58785;BME280;44557;51.862;19.378;2023-07-13T11:01:03;98931.17;;;22.40;78.61
58785;BME280;44557;51.862;19.378;2023-07-13T11:03:14;98929.86;;;22.50;78.00
58785;BME280;44557;51.862;19.378;2023-07-13T11:07:31;98936.25;;;22.19;79.75
58785;BME280;44557;51.862;19.378;2023-07-13T11:09:59;98938.36;;;22.46;78.19
58785;BME280;44557;51.862;19.378;2023-07-13T11:16:52;98947.12;;;22.59;77.99
58785;BME280;44557;51.862;19.378;2023-07-13T11:21:16;98946.48;;;22.55;78.83
58785;BME280;44557;51.862;19.378;2023-07-13T11:23:28;98950.08;;;22.45;79.31
58785;BME280;44557;51.862;19.378;2023-07-13T11:25:33;98946.10;;;22.47;79.14
58785;BME280;44557;51.862;19.378;2023-07-13T11:27:42;98944.98;;;22.62;78.17
58785;BME280;44557;51.862;19.378;2023-07-13T11:29:48;98941.77;;;22.55;77.97
58785;BME280;44557;51.862;19.378;2023-07-13T11:31:53;98941.61;;;22.48;77.88
58785;BME280;44557;51.862;19.378;2023-07-13T11:33:57;98942.42;;;22.75;76.69
58785;BME280;44557;51.862;19.378;2023-07-13T11:36:04;98943.23;;;22.71;76.01
58785;BME280;44557;51.862;19.378;2023-07-13T11:38:16;98939.89;;;22.77;76.00
58785;BME280;44557;51.862;19.378;2023-07-13T11:40:22;98941.40;;;22.77;75.48
58785;BME280;44557;51.862;19.378;2023-07-13T11:42:30;98942.83;;;22.81;76.01
58785;BME280;44557;51.862;19.378;2023-07-13T11:44:33;98938.92;;;22.89;75.12
58785;BME280;44557;51.862;19.378;2023-07-13T11:46:36;98945.77;;;22.69;75.12
58785;BME280;44557;51.862;19.378;2023-07-13T11:48:38;98949.98;;;22.68;74.20
58785;BME280;44557;51.862;19.378;2023-07-13T11:50:50;98948.69;;;22.61;74.56
58785;BME280;44557;51.862;19.378;2023-07-13T11:52:54;98949.86;;;22.73;73.92
58785;BME280;44557;51.862;19.378;2023-07-13T11:55:00;98953.95;;;22.86;73.47
58785;BME280;44557;51.862;19.378;2023-07-13T11:57:16;98951.59;;;22.74;73.76
58785;BME280;44557;51.862;19.378;2023-07-13T11:59:24;98951.18;;;22.67;73.28
58785;BME280;44557;51.862;19.378;2023-07-13T12:01:30;98956.23;;;22.72;74.30
58785;BME280;44557;51.862;19.378;2023-07-13T12:03:35;98958.97;;;22.71;73.42
58785;BME280;44557;51.862;19.378;2023-07-13T12:05:37;98959.28;;;22.88;73.21
58785;BME280;44557;51.862;19.378;2023-07-13T12:07:39;98960.77;;;22.90;73.31
58785;BME280;44557;51.862;19.378;2023-07-13T12:09:42;98963.95;;;22.98;72.84
58785;BME280;44557;51.862;19.378;2023-07-13T12:11:45;98963.34;;;23.03;72.57
58785;BME280;44557;51.862;19.378;2023-07-13T12:13:47;98963.42;;;22.96;72.68
58785;BME280;44557;51.862;19.378;2023-07-13T12:15:49;98963.40;;;22.86;72.66
58785;BME280;44557;51.862;19.378;2023-07-13T12:17:53;98965.73;;;22.93;73.23
58785;BME280;44557;51.862;19.378;2023-07-13T12:19:55;98964.20;;;23.03;73.59
58785;BME280;44557;51.862;19.378;2023-07-13T12:21:58;98969.95;;;23.30;72.89
58785;BME280;44557;51.862;19.378;2023-07-13T12:24:02;98969.39;;;23.23;72.37
58785;BME280;44557;51.862;19.378;2023-07-13T12:26:06;98973.41;;;23.14;71.60
58785;BME280;44557;51.862;19.378;2023-07-13T12:28:38;98970.35;;;23.11;71.80
58785;BME280;44557;51.862;19.378;2023-07-13T12:30:41;98966.83;;;23.45;70.55
58785;BME280;44557;51.862;19.378;2023-07-13T12:33:15;98963.46;;;23.45;70.21
58785;BME280;44557;51.862;19.378;2023-07-13T12:35:17;98962.66;;;23.20;71.47
58785;BME280;44557;51.862;19.378;2023-07-13T12:37:20;98971.91;;;23.22;71.52
58785;BME280;44557;51.862;19.378;2023-07-13T12:39:36;98970.10;;;23.27;71.90
58785;BME280;44557;51.862;19.378;2023-07-13T12:41:38;98970.19;;;23.39;71.52
58785;BME280;44557;51.862;19.378;2023-07-13T12:43:40;98968.58;;;23.20;72.21
58785;BME280;44557;51.862;19.378;2023-07-13T12:45:59;98968.81;;;23.18;72.85
58785;BME280;44557;51.862;19.378;2023-07-13T12:48:15;98963.56;;;23.18;72.98
58785;BME280;44557;51.862;19.378;2023-07-13T12:50:20;98959.39;;;23.28;73.19
58785;BME280;44557;51.862;19.378;2023-07-13T12:52:31;98962.33;;;23.33;72.85
58785;BME280;44557;51.862;19.378;2023-07-13T12:54:39;98955.96;;;23.43;72.88
58785;BME280;44557;51.862;19.378;2023-07-13T12:56:40;98955.73;;;23.23;73.71
58785;BME280;44557;51.862;19.378;2023-07-13T12:58:43;98951.29;;;23.47;72.75
58785;BME280;44557;51.862;19.378;2023-07-13T13:00:49;98944.11;;;23.62;71.87
58785;BME280;44557;51.862;19.378;2023-07-13T13:02:56;98946.03;;;23.85;71.22
58785;BME280;44557;51.862;19.378;2023-07-13T13:05:01;98944.95;;;24.12;70.30
58785;BME280;44557;51.862;19.378;2023-07-13T13:07:09;98945.63;;;24.11;70.55
58785;BME280;44557;51.862;19.378;2023-07-13T13:09:15;98944.05;;;24.12;70.07
58785;BME280;44557;51.862;19.378;2023-07-13T13:11:19;98943.83;;;24.22;69.34
58785;BME280;44557;51.862;19.378;2023-07-13T13:13:22;98945.67;;;24.12;68.63
58785;BME280;44557;51.862;19.378;2023-07-13T13:15:24;98948.52;;;24.16;67.83
58785;BME280;44557;51.862;19.378;2023-07-13T13:17:29;98949.86;;;24.12;66.78
58785;BME280;44557;51.862;19.378;2023-07-13T13:19:33;98952.23;;;24.02;65.82
58785;BME280;44557;51.862;19.378;2023-07-13T13:21:35;98956.80;;;23.94;66.21
58785;BME280;44557;51.862;19.378;2023-07-13T13:23:38;98949.48;;;24.19;64.97